sensor_id;sensor_type;location;lat;lon;timestamp;P1;durP1;ratioP1;P2;durP2;ratioP2
11267;SDS011;49397;47.474;9.416;2023-03-14T00:00:27;1.50;;;1.50;;
11267;SDS011;49397;47.474;9.416;2023-03-14T00:02:53;1.60;;;1.60;;
11267;SDS011;49397;47.474;9.416;2023-03-14T00:05:18;2.07;;;1.67;;
11267;SDS011;49397;47.474;9.416;2023-03-14T00:07:44;2.33;;;1.63;;
11267;SDS011;49397;47.474;9.416;2023-03-14T00:10:10;2.83;;;1.80;;
11267;SDS011;49397;47.474;9.416;2023-03-14T00:12:36;1.70;;;1.60;;
11267;SDS011;49397;47.474;9.416;2023-03-14T00:15:01;1.90;;;1.80;;
11267;SDS011;49397;47.474;9.416;2023-03-14T00:17:29;1.80;;;1.30;;
11267;SDS011;49397;47.474;9.416;2023-03-14T00:19:54;1.97;;;1.87;;
11267;SDS011;49397;47.474;9.416;2023-03-14T00:22:20;1.80;;;1.80;;
11267;SDS011;49397;47.474;9.416;2023-03-14T00:24:45;2.87;;;1.87;;
11267;SDS011;49397;47.474;9.416;2023-03-14T00:27:11;1.67;;;1.57;;
11267;SDS011;49397;47.474;9.416;2023-03-14T00:29:36;1.70;;;1.60;;
11267;SDS011;49397;47.474;9.416;2023-03-14T00:32:01;1.90;;;1.80;;
11267;SDS011;49397;47.474;9.416;2023-03-14T00:34:30;1.50;;;1.50;;
11267;SDS011;49397;47.474;9.416;2023-03-14T00:36:56;1.50;;;1.50;;
11267;SDS011;49397;47.474;9.416;2023-03-14T00:39:21;2.40;;;1.47;;
11267;SDS011;49397;47.474;9.416;2023-03-14T00:41:47;1.90;;;1.80;;
11267;SDS011;49397;47.474;9.416;2023-03-14T00:44:12;1.90;;;1.80;;
11267;SDS011;49397;47.474;9.416;2023-03-14T00:46:38;1.50;;;1.50;;
11267;SDS011;49397;47.474;9.416;2023-03-14T00:49:03;1.63;;;1.63;;
11267;SDS011;49397;47.474;9.416;2023-03-14T00:51:28;1.50;;;1.40;;
11267;SDS011;49397;47.474;9.416;2023-03-14T00:53:54;2.00;;;1.83;;
11267;SDS011;49397;47.474;9.416;2023-03-14T00:56:19;1.60;;;1.60;;
11267;SDS011;49397;47.474;9.416;2023-03-14T00:58:44;2.13;;;1.60;;
11267;SDS011;49397;47.474;9.416;2023-03-14T01:01:12;3.07;;;1.60;;
11267;SDS011;49397;47.474;9.416;2023-03-14T01:03:38;2.00;;;1.90;;
11267;SDS011;49397;47.474;9.416;2023-03-14T01:06:23;2.20;;;1.60;;
11267;SDS011;49397;47.474;9.416;2023-03-14T01:08:49;1.57;;;1.50;;
11267;SDS011;49397;47.474;9.416;2023-03-14T01:11:18;1.77;;;1.70;;
11267;SDS011;49397;47.474;9.416;2023-03-14T01:13:44;1.47;;;1.47;;
11267;SDS011;49397;47.474;9.416;2023-03-14T01:16:11;1.50;;;1.50;;
11267;SDS011;49397;47.474;9.416;2023-03-14T01:18:37;1.33;;;1.33;;
11267;SDS011;49397;47.474;9.416;2023-03-14T01:21:24;1.53;;;1.43;;
11267;SDS011;49397;47.474;9.416;2023-03-14T01:23:48;1.53;;;1.53;;
11267;SDS011;49397;47.474;9.416;2023-03-14T01:26:15;1.60;;;1.60;;
11267;SDS011;49397;47.474;9.416;2023-03-14T01:28:40;1.50;;;1.50;;
11267;SDS011;49397;47.474;9.416;2023-03-14T01:31:07;1.57;;;1.47;;
11267;SDS011;49397;47.474;9.416;2023-03-14T01:33:33;1.47;;;1.47;;
11267;SDS011;49397;47.474;9.416;2023-03-14T01:35:58;1.70;;;1.70;;
11267;SDS011;49397;47.474;9.416;2023-03-14T01:38:23;1.60;;;1.60;;
11267;SDS011;49397;47.474;9.416;2023-03-14T01:44:01;3.43;;;1.70;;
11267;SDS011;49397;47.474;9.416;2023-03-14T01:49:03;1.50;;;1.50;;
11267;SDS011;49397;47.474;9.416;2023-03-14T01:54:25;1.20;;;1.20;;
11267;SDS011;49397;47.474;9.416;2023-03-14T01:56:59;1.40;;;1.40;;
11267;SDS011;49397;47.474;9.416;2023-03-14T01:59:27;1.50;;;1.50;;
11267;SDS011;49397;47.474;9.416;2023-03-14T02:01:53;1.20;;;1.20;;
11267;SDS011;49397;47.474;9.416;2023-03-14T02:07:25;1.30;;;1.30;;
11267;SDS011;49397;47.474;9.416;2023-03-14T02:09:52;1.50;;;1.50;;
11267;SDS011;49397;47.474;9.416;2023-03-14T02:12:18;1.37;;;1.37;;
11267;SDS011;49397;47.474;9.416;2023-03-14T02:14:45;1.20;;;1.20;;
11267;SDS011;49397;47.474;9.416;2023-03-14T02:17:13;1.30;;;1.30;;
11267;SDS011;49397;47.474;9.416;2023-03-14T02:25:12;1.50;;;1.50;;
11267;SDS011;49397;47.474;9.416;2023-03-14T02:27:18;1.30;;;1.30;;
11267;SDS011;49397;47.474;9.416;2023-03-14T02:32:13;1.20;;;1.20;;
11267;SDS011;49397;47.474;9.416;2023-03-14T02:34:39;1.47;;;1.47;;
11267;SDS011;49397;47.474;9.416;2023-03-14T02:37:06;1.60;;;1.60;;
11267;SDS011;49397;47.474;9.416;2023-03-14T02:39:36;1.30;;;1.30;;
11267;SDS011;49397;47.474;9.416;2023-03-14T02:42:01;4.00;;;1.60;;
11267;SDS011;49397;47.474;9.416;2023-03-14T02:44:27;1.47;;;1.47;;
11267;SDS011;49397;47.474;9.416;2023-03-14T02:46:52;1.30;;;1.30;;
11267;SDS011;49397;47.474;9.416;2023-03-14T02:49:18;1.20;;;1.20;;
11267;SDS011;49397;47.474;9.416;2023-03-14T02:51:43;1.50;;;1.50;;
11267;SDS011;49397;47.474;9.416;2023-03-14T02:54:09;1.30;;;1.30;;
11267;SDS011;49397;47.474;9.416;2023-03-14T02:56:35;1.30;;;1.30;;
11267;SDS011;49397;47.474;9.416;2023-03-14T02:59:05;1.40;;;1.40;;
11267;SDS011;49397;47.474;9.416;2023-03-14T03:01:30;6.00;;;1.57;;
11267;SDS011;49397;47.474;9.416;2023-03-14T03:03:55;1.30;;;1.30;;
11267;SDS011;49397;47.474;9.416;2023-03-14T03:06:21;1.50;;;1.50;;
11267;SDS011;49397;47.474;9.416;2023-03-14T03:08:46;1.50;;;1.50;;
11267;SDS011;49397;47.474;9.416;2023-03-14T03:11:11;1.30;;;1.30;;
11267;SDS011;49397;47.474;9.416;2023-03-14T03:13:37;1.30;;;1.30;;
11267;SDS011;49397;47.474;9.416;2023-03-14T03:16:02;1.40;;;1.40;;
11267;SDS011;49397;47.474;9.416;2023-03-14T03:18:28;1.40;;;1.40;;
11267;SDS011;49397;47.474;9.416;2023-03-14T03:20:53;1.60;;;1.60;;
11267;SDS011;49397;47.474;9.416;2023-03-14T03:23:18;1.40;;;1.40;;
11267;SDS011;49397;47.474;9.416;2023-03-14T03:25:48;1.40;;;1.40;;
11267;SDS011;49397;47.474;9.416;2023-03-14T03:28:14;1.53;;;1.53;;
11267;SDS011;49397;47.474;9.416;2023-03-14T03:30:39;1.40;;;1.40;;
11267;SDS011;49397;47.474;9.416;2023-03-14T03:33:05;1.77;;;1.67;;
11267;SDS011;49397;47.474;9.416;2023-03-14T03:35:30;1.33;;;1.33;;
11267;SDS011;49397;47.474;9.416;2023-03-14T03:37:56;1.50;;;1.50;;
11267;SDS011;49397;47.474;9.416;2023-03-14T03:40:21;1.30;;;1.30;;
11267;SDS011;49397;47.474;9.416;2023-03-14T03:42:47;1.37;;;1.37;;
11267;SDS011;49397;47.474;9.416;2023-03-14T03:45:12;1.30;;;1.30;;
11267;SDS011;49397;47.474;9.416;2023-03-14T03:47:38;1.30;;;1.30;;
11267;SDS011;49397;47.474;9.416;2023-03-14T03:50:03;1.30;;;1.30;;
11267;SDS011;49397;47.474;9.416;2023-03-14T03:52:28;1.50;;;1.50;;
11267;SDS011;49397;47.474;9.416;2023-03-14T03:54:54;1.47;;;1.37;;
11267;SDS011;49397;47.474;9.416;2023-03-14T03:57:19;1.40;;;1.40;;
11267;SDS011;49397;47.474;9.416;2023-03-14T03:59:47;1.33;;;1.33;;
11267;SDS011;49397;47.474;9.416;2023-03-14T04:02:13;1.20;;;1.20;;
11267;SDS011;49397;47.474;9.416;2023-03-14T04:04:38;1.77;;;1.43;;
11267;SDS011;49397;47.474;9.416;2023-03-14T04:07:03;1.40;;;1.40;;
11267;SDS011;49397;47.474;9.416;2023-03-14T04:09:29;1.33;;;1.33;;
11267;SDS011;49397;47.474;9.416;2023-03-14T04:11:55;1.40;;;1.40;;
11267;SDS011;49397;47.474;9.416;2023-03-14T04:14:20;1.40;;;1.40;;
11267;SDS011;49397;47.474;9.416;2023-03-14T04:16:46;1.53;;;1.53;;
11267;SDS011;49397;47.474;9.416;2023-03-14T04:19:11;1.30;;;1.30;;
11267;SDS011;49397;47.474;9.416;2023-03-14T04:21:37;1.43;;;1.43;;
11267;SDS011;49397;47.474;9.416;2023-03-14T04:24:05;1.30;;;1.30;;
11267;SDS011;49397;47.474;9.416;2023-03-14T04:26:31;1.60;;;1.50;;
11267;SDS011;49397;47.474;9.416;2023-03-14T04:32:18;1.70;;;1.60;;
11267;SDS011;49397;47.474;9.416;2023-03-14T04:34:43;1.33;;;1.33;;
11267;SDS011;49397;47.474;9.416;2023-03-14T04:37:08;1.60;;;1.60;;
11267;SDS011;49397;47.474;9.416;2023-03-14T04:39:34;1.50;;;1.50;;
11267;SDS011;49397;47.474;9.416;2023-03-14T04:41:59;1.40;;;1.40;;
11267;SDS011;49397;47.474;9.416;2023-03-14T04:44:26;1.40;;;1.40;;
11267;SDS011;49397;47.474;9.416;2023-03-14T04:46:51;1.50;;;1.50;;
11267;SDS011;49397;47.474;9.416;2023-03-14T04:49:16;1.67;;;1.67;;
11267;SDS011;49397;47.474;9.416;2023-03-14T04:51:42;1.43;;;1.43;;
11267;SDS011;49397;47.474;9.416;2023-03-14T04:54:07;1.30;;;1.30;;
11267;SDS011;49397;47.474;9.416;2023-03-14T04:56:32;1.50;;;1.50;;
11267;SDS011;49397;47.474;9.416;2023-03-14T04:58:58;1.30;;;1.30;;
11267;SDS011;49397;47.474;9.416;2023-03-14T05:01:23;1.50;;;1.50;;
11267;SDS011;49397;47.474;9.416;2023-03-14T05:03:49;1.40;;;1.40;;
11267;SDS011;49397;47.474;9.416;2023-03-14T05:06:14;1.70;;;1.60;;
11267;SDS011;49397;47.474;9.416;2023-03-14T05:08:39;1.47;;;1.47;;
11267;SDS011;49397;47.474;9.416;2023-03-14T05:11:05;1.50;;;1.50;;
11267;SDS011;49397;47.474;9.416;2023-03-14T05:13:30;1.10;;;1.10;;
11267;SDS011;49397;47.474;9.416;2023-03-14T05:16:02;1.30;;;1.30;;
11267;SDS011;49397;47.474;9.416;2023-03-14T05:18:28;1.27;;;1.27;;
11267;SDS011;49397;47.474;9.416;2023-03-14T05:20:53;1.50;;;1.50;;
11267;SDS011;49397;47.474;9.416;2023-03-14T05:23:19;2.27;;;2.17;;
11267;SDS011;49397;47.474;9.416;2023-03-14T05:25:44;1.57;;;1.57;;
11267;SDS011;49397;47.474;9.416;2023-03-14T05:28:09;1.67;;;1.57;;
11267;SDS011;49397;47.474;9.416;2023-03-14T05:30:35;1.60;;;1.60;;
11267;SDS011;49397;47.474;9.416;2023-03-14T05:33:00;2.40;;;2.20;;
11267;SDS011;49397;47.474;9.416;2023-03-14T05:35:25;2.40;;;2.30;;
11267;SDS011;49397;47.474;9.416;2023-03-14T05:37:51;3.77;;;2.80;;
11267;SDS011;49397;47.474;9.416;2023-03-14T05:40:16;1.67;;;1.67;;
11267;SDS011;49397;47.474;9.416;2023-03-14T05:42:41;3.87;;;2.30;;
11267;SDS011;49397;47.474;9.416;2023-03-14T05:45:07;1.77;;;1.77;;
11267;SDS011;49397;47.474;9.416;2023-03-14T05:47:32;2.10;;;2.00;;
11267;SDS011;49397;47.474;9.416;2023-03-14T05:49:58;3.33;;;1.80;;
11267;SDS011;49397;47.474;9.416;2023-03-14T05:52:23;2.10;;;2.00;;
11267;SDS011;49397;47.474;9.416;2023-03-14T05:54:48;3.60;;;1.80;;
11267;SDS011;49397;47.474;9.416;2023-03-14T05:57:14;2.07;;;1.97;;
11267;SDS011;49397;47.474;9.416;2023-03-14T05:59:39;3.00;;;1.80;;
11267;SDS011;49397;47.474;9.416;2023-03-14T06:02:04;1.57;;;1.57;;
11267;SDS011;49397;47.474;9.416;2023-03-14T06:04:30;1.70;;;1.60;;
11267;SDS011;49397;47.474;9.416;2023-03-14T06:06:55;1.50;;;1.40;;
11267;SDS011;49397;47.474;9.416;2023-03-14T06:09:20;3.47;;;2.50;;
11267;SDS011;49397;47.474;9.416;2023-03-14T06:11:47;2.87;;;2.60;;
11267;SDS011;49397;47.474;9.416;2023-03-14T06:14:13;2.50;;;2.30;;
11267;SDS011;49397;47.474;9.416;2023-03-14T06:16:38;1.90;;;1.80;;
11267;SDS011;49397;47.474;9.416;2023-03-14T06:19:03;1.97;;;1.87;;
11267;SDS011;49397;47.474;9.416;2023-03-14T06:21:29;2.00;;;1.80;;
11267;SDS011;49397;47.474;9.416;2023-03-14T06:23:54;2.30;;;2.10;;
11267;SDS011;49397;47.474;9.416;2023-03-14T06:26:20;2.13;;;2.00;;
11267;SDS011;49397;47.474;9.416;2023-03-14T06:28:45;3.47;;;2.43;;
11267;SDS011;49397;47.474;9.416;2023-03-14T06:31:11;3.37;;;2.40;;
11267;SDS011;49397;47.474;9.416;2023-03-14T06:33:36;2.57;;;2.37;;
11267;SDS011;49397;47.474;9.416;2023-03-14T06:36:01;2.47;;;2.27;;
11267;SDS011;49397;47.474;9.416;2023-03-14T06:38:27;2.63;;;2.40;;
11267;SDS011;49397;47.474;9.416;2023-03-14T06:40:52;2.30;;;2.17;;
11267;SDS011;49397;47.474;9.416;2023-03-14T06:43:17;1.90;;;1.80;;
11267;SDS011;49397;47.474;9.416;2023-03-14T06:45:43;2.20;;;2.10;;
11267;SDS011;49397;47.474;9.416;2023-03-14T06:48:08;2.10;;;1.90;;
11267;SDS011;49397;47.474;9.416;2023-03-14T06:50:33;2.23;;;2.00;;
11267;SDS011;49397;47.474;9.416;2023-03-14T06:52:59;1.90;;;1.80;;
11267;SDS011;49397;47.474;9.416;2023-03-14T06:55:24;1.70;;;1.70;;
11267;SDS011;49397;47.474;9.416;2023-03-14T06:57:49;1.73;;;1.63;;
11267;SDS011;49397;47.474;9.416;2023-03-14T07:00:15;1.97;;;1.77;;
11267;SDS011;49397;47.474;9.416;2023-03-14T07:02:40;1.70;;;1.60;;
11267;SDS011;49397;47.474;9.416;2023-03-14T07:05:06;1.60;;;1.60;;
11267;SDS011;49397;47.474;9.416;2023-03-14T07:07:32;1.70;;;1.70;;
11267;SDS011;49397;47.474;9.416;2023-03-14T07:09:57;2.73;;;2.00;;
11267;SDS011;49397;47.474;9.416;2023-03-14T07:12:22;1.63;;;1.60;;
11267;SDS011;49397;47.474;9.416;2023-03-14T07:14:48;1.97;;;1.87;;
11267;SDS011;49397;47.474;9.416;2023-03-14T07:17:13;2.03;;;1.93;;
11267;SDS011;49397;47.474;9.416;2023-03-14T07:19:38;2.77;;;2.20;;
11267;SDS011;49397;47.474;9.416;2023-03-14T07:22:04;2.10;;;2.00;;
11267;SDS011;49397;47.474;9.416;2023-03-14T07:24:30;1.83;;;1.73;;
11267;SDS011;49397;47.474;9.416;2023-03-14T07:26:55;1.90;;;1.80;;
11267;SDS011;49397;47.474;9.416;2023-03-14T07:29:20;2.37;;;2.27;;
11267;SDS011;49397;47.474;9.416;2023-03-14T07:31:46;1.80;;;1.80;;
11267;SDS011;49397;47.474;9.416;2023-03-14T07:34:11;2.00;;;1.80;;
11267;SDS011;49397;47.474;9.416;2023-03-14T07:36:36;1.73;;;1.70;;
11267;SDS011;49397;47.474;9.416;2023-03-14T07:39:02;1.87;;;1.77;;
11267;SDS011;49397;47.474;9.416;2023-03-14T07:41:27;2.10;;;2.00;;
11267;SDS011;49397;47.474;9.416;2023-03-14T07:43:53;1.93;;;1.83;;
11267;SDS011;49397;47.474;9.416;2023-03-14T07:46:18;1.87;;;1.77;;
11267;SDS011;49397;47.474;9.416;2023-03-14T07:48:43;2.50;;;2.30;;
11267;SDS011;49397;47.474;9.416;2023-03-14T07:51:09;2.27;;;2.13;;
11267;SDS011;49397;47.474;9.416;2023-03-14T07:53:34;2.30;;;2.20;;
11267;SDS011;49397;47.474;9.416;2023-03-14T07:55:59;2.30;;;2.00;;
11267;SDS011;49397;47.474;9.416;2023-03-14T07:58:25;1.80;;;1.70;;
11267;SDS011;49397;47.474;9.416;2023-03-14T08:00:51;1.63;;;1.53;;
11267;SDS011;49397;47.474;9.416;2023-03-14T08:03:17;1.73;;;1.63;;
11267;SDS011;49397;47.474;9.416;2023-03-14T08:05:42;1.70;;;1.60;;
11267;SDS011;49397;47.474;9.416;2023-03-14T08:08:07;1.87;;;1.77;;
11267;SDS011;49397;47.474;9.416;2023-03-14T08:10:33;1.93;;;1.83;;
11267;SDS011;49397;47.474;9.416;2023-03-14T08:12:59;2.10;;;2.00;;
11267;SDS011;49397;47.474;9.416;2023-03-14T08:15:25;2.00;;;1.90;;
11267;SDS011;49397;47.474;9.416;2023-03-14T08:17:50;1.80;;;1.80;;
11267;SDS011;49397;47.474;9.416;2023-03-14T08:20:19;1.63;;;1.63;;
11267;SDS011;49397;47.474;9.416;2023-03-14T08:22:45;1.90;;;1.80;;
11267;SDS011;49397;47.474;9.416;2023-03-14T08:25:10;1.80;;;1.70;;
11267;SDS011;49397;47.474;9.416;2023-03-14T08:27:36;1.80;;;1.70;;
11267;SDS011;49397;47.474;9.416;2023-03-14T08:30:04;2.00;;;1.90;;
11267;SDS011;49397;47.474;9.416;2023-03-14T08:32:30;1.60;;;1.60;;
11267;SDS011;49397;47.474;9.416;2023-03-14T08:34:55;1.80;;;1.80;;
11267;SDS011;49397;47.474;9.416;2023-03-14T08:37:21;1.90;;;1.80;;
11267;SDS011;49397;47.474;9.416;2023-03-14T08:39:46;2.83;;;1.90;;
11267;SDS011;49397;47.474;9.416;2023-03-14T08:42:12;1.80;;;1.70;;
11267;SDS011;49397;47.474;9.416;2023-03-14T08:44:37;2.00;;;1.90;;
11267;SDS011;49397;47.474;9.416;2023-03-14T08:47:03;1.73;;;1.63;;
11267;SDS011;49397;47.474;9.416;2023-03-14T08:49:29;1.70;;;1.60;;
11267;SDS011;49397;47.474;9.416;2023-03-14T08:51:54;1.60;;;1.60;;
11267;SDS011;49397;47.474;9.416;2023-03-14T08:54:19;1.80;;;1.70;;
11267;SDS011;49397;47.474;9.416;2023-03-14T08:56:45;1.60;;;1.60;;
11267;SDS011;49397;47.474;9.416;2023-03-14T08:59:10;2.77;;;1.80;;
11267;SDS011;49397;47.474;9.416;2023-03-14T09:01:36;1.70;;;1.60;;
11267;SDS011;49397;47.474;9.416;2023-03-14T09:04:01;1.70;;;1.70;;
11267;SDS011;49397;47.474;9.416;2023-03-14T09:06:26;1.60;;;1.60;;
11267;SDS011;49397;47.474;9.416;2023-03-14T09:08:52;2.03;;;1.70;;
11267;SDS011;49397;47.474;9.416;2023-03-14T09:11:17;1.60;;;1.60;;
11267;SDS011;49397;47.474;9.416;2023-03-14T09:13:43;1.60;;;1.60;;
11267;SDS011;49397;47.474;9.416;2023-03-14T09:16:09;1.60;;;1.60;;
11267;SDS011;49397;47.474;9.416;2023-03-14T09:18:34;1.40;;;1.40;;
11267;SDS011;49397;47.474;9.416;2023-03-14T09:21:00;1.67;;;1.60;;
11267;SDS011;49397;47.474;9.416;2023-03-14T09:23:25;1.77;;;1.73;;
11267;SDS011;49397;47.474;9.416;2023-03-14T09:25:54;1.50;;;1.50;;
11267;SDS011;49397;47.474;9.416;2023-03-14T09:28:20;1.47;;;1.47;;
11267;SDS011;49397;47.474;9.416;2023-03-14T09:30:45;1.53;;;1.53;;
11267;SDS011;49397;47.474;9.416;2023-03-14T09:33:10;1.40;;;1.40;;
11267;SDS011;49397;47.474;9.416;2023-03-14T09:35:36;1.33;;;1.33;;
11267;SDS011;49397;47.474;9.416;2023-03-14T09:38:01;1.40;;;1.40;;
11267;SDS011;49397;47.474;9.416;2023-03-14T09:40:27;1.50;;;1.50;;
11267;SDS011;49397;47.474;9.416;2023-03-14T09:42:56;1.50;;;1.50;;
11267;SDS011;49397;47.474;9.416;2023-03-14T09:45:25;1.50;;;1.50;;
11267;SDS011;49397;47.474;9.416;2023-03-14T09:47:52;1.70;;;1.70;;
11267;SDS011;49397;47.474;9.416;2023-03-14T09:50:18;1.80;;;1.80;;
11267;SDS011;49397;47.474;9.416;2023-03-14T09:52:45;2.13;;;1.50;;
11267;SDS011;49397;47.474;9.416;2023-03-14T09:55:15;1.80;;;1.80;;
11267;SDS011;49397;47.474;9.416;2023-03-14T09:57:41;1.77;;;1.67;;
11267;SDS011;49397;47.474;9.416;2023-03-14T10:02:40;1.60;;;1.60;;
11267;SDS011;49397;47.474;9.416;2023-03-14T10:05:13;1.60;;;1.60;;
11267;SDS011;49397;47.474;9.416;2023-03-14T10:07:38;1.47;;;1.47;;
11267;SDS011;49397;47.474;9.416;2023-03-14T10:10:09;1.50;;;1.50;;
11267;SDS011;49397;47.474;9.416;2023-03-14T10:12:37;1.40;;;1.40;;
11267;SDS011;49397;47.474;9.416;2023-03-14T10:15:10;1.70;;;1.70;;
11267;SDS011;49397;47.474;9.416;2023-03-14T10:17:55;1.53;;;1.53;;
11267;SDS011;49397;47.474;9.416;2023-03-14T10:23:18;1.60;;;1.60;;
11267;SDS011;49397;47.474;9.416;2023-03-14T10:25:46;1.73;;;1.70;;
11267;SDS011;49397;47.474;9.416;2023-03-14T10:28:31;1.60;;;1.60;;
11267;SDS011;49397;47.474;9.416;2023-03-14T10:30:57;1.83;;;1.73;;
11267;SDS011;49397;47.474;9.416;2023-03-14T10:33:23;1.90;;;1.80;;
11267;SDS011;49397;47.474;9.416;2023-03-14T10:35:56;1.60;;;1.60;;
11267;SDS011;49397;47.474;9.416;2023-03-14T10:38:23;1.70;;;1.70;;
11267;SDS011;49397;47.474;9.416;2023-03-14T10:40:50;1.60;;;1.60;;
11267;SDS011;49397;47.474;9.416;2023-03-14T10:43:27;1.80;;;1.80;;
11267;SDS011;49397;47.474;9.416;2023-03-14T10:45:56;1.80;;;1.80;;
11267;SDS011;49397;47.474;9.416;2023-03-14T10:48:25;1.40;;;1.40;;
11267;SDS011;49397;47.474;9.416;2023-03-14T10:50:58;1.70;;;1.70;;
11267;SDS011;49397;47.474;9.416;2023-03-14T10:53:26;1.57;;;1.57;;
11267;SDS011;49397;47.474;9.416;2023-03-14T10:55:52;1.70;;;1.70;;
11267;SDS011;49397;47.474;9.416;2023-03-14T10:58:21;1.63;;;1.63;;
11267;SDS011;49397;47.474;9.416;2023-03-14T11:00:51;1.50;;;1.50;;
11267;SDS011;49397;47.474;9.416;2023-03-14T11:03:19;1.40;;;1.40;;
11267;SDS011;49397;47.474;9.416;2023-03-14T11:05:59;1.70;;;1.70;;
11267;SDS011;49397;47.474;9.416;2023-03-14T11:08:31;1.70;;;1.70;;
11267;SDS011;49397;47.474;9.416;2023-03-14T11:26:17;1.70;;;1.70;;
11267;SDS011;49397;47.474;9.416;2023-03-14T11:28:47;2.03;;;1.93;;
11267;SDS011;49397;47.474;9.416;2023-03-14T11:31:16;2.00;;;1.90;;
11267;SDS011;49397;47.474;9.416;2023-03-14T11:33:46;1.90;;;1.80;;
11267;SDS011;49397;47.474;9.416;2023-03-14T11:36:17;2.70;;;1.87;;
11267;SDS011;49397;47.474;9.416;2023-03-14T11:38:48;1.87;;;1.87;;
11267;SDS011;49397;47.474;9.416;2023-03-14T11:41:33;1.90;;;1.80;;
11267;SDS011;49397;47.474;9.416;2023-03-14T11:44:01;1.70;;;1.70;;
11267;SDS011;49397;47.474;9.416;2023-03-14T11:46:30;1.97;;;1.90;;
11267;SDS011;49397;47.474;9.416;2023-03-14T11:49:14;1.80;;;1.70;;
11267;SDS011;49397;47.474;9.416;2023-03-14T11:51:42;2.10;;;2.00;;
11267;SDS011;49397;47.474;9.416;2023-03-14T11:59:20;2.00;;;1.90;;
11267;SDS011;49397;47.474;9.416;2023-03-14T12:04:13;1.70;;;1.67;;
11267;SDS011;49397;47.474;9.416;2023-03-14T12:06:48;1.90;;;1.80;;
11267;SDS011;49397;47.474;9.416;2023-03-14T12:09:13;1.73;;;1.73;;
11267;SDS011;49397;47.474;9.416;2023-03-14T12:11:52;2.57;;;2.07;;
11267;SDS011;49397;47.474;9.416;2023-03-14T12:14:26;1.77;;;1.77;;
11267;SDS011;49397;47.474;9.416;2023-03-14T12:16:53;1.83;;;1.77;;
11267;SDS011;49397;47.474;9.416;2023-03-14T12:24:19;1.50;;;1.50;;
11267;SDS011;49397;47.474;9.416;2023-03-14T12:26:57;1.90;;;1.80;;
11267;SDS011;49397;47.474;9.416;2023-03-14T12:29:22;1.70;;;1.70;;
11267;SDS011;49397;47.474;9.416;2023-03-14T12:31:49;1.50;;;1.50;;
11267;SDS011;49397;47.474;9.416;2023-03-14T12:34:34;1.70;;;1.60;;
11267;SDS011;49397;47.474;9.416;2023-03-14T12:39:31;1.80;;;1.70;;
11267;SDS011;49397;47.474;9.416;2023-03-14T12:46:58;1.90;;;1.60;;
11267;SDS011;49397;47.474;9.416;2023-03-14T12:49:30;1.30;;;1.30;;
11267;SDS011;49397;47.474;9.416;2023-03-14T12:52:00;1.60;;;1.60;;
11267;SDS011;49397;47.474;9.416;2023-03-14T12:59:56;1.57;;;1.50;;
11267;SDS011;49397;47.474;9.416;2023-03-14T13:02:43;2.40;;;1.53;;
11267;SDS011;49397;47.474;9.416;2023-03-14T13:12:37;1.60;;;1.60;;
11267;SDS011;49397;47.474;9.416;2023-03-14T13:15:07;1.60;;;1.60;;
11267;SDS011;49397;47.474;9.416;2023-03-14T13:17:39;1.40;;;1.40;;
11267;SDS011;49397;47.474;9.416;2023-03-14T13:20:10;1.43;;;1.43;;
11267;SDS011;49397;47.474;9.416;2023-03-14T13:22:36;1.57;;;1.57;;
11267;SDS011;49397;47.474;9.416;2023-03-14T13:25:07;1.30;;;1.30;;
11267;SDS011;49397;47.474;9.416;2023-03-14T13:27:34;3.37;;;1.70;;
11267;SDS011;49397;47.474;9.416;2023-03-14T13:32:45;1.40;;;1.40;;
11267;SDS011;49397;47.474;9.416;2023-03-14T13:35:16;1.87;;;1.80;;
11267;SDS011;49397;47.474;9.416;2023-03-14T13:37:42;1.50;;;1.50;;
11267;SDS011;49397;47.474;9.416;2023-03-14T13:42:59;1.40;;;1.40;;
11267;SDS011;49397;47.474;9.416;2023-03-14T13:45:24;1.63;;;1.50;;
11267;SDS011;49397;47.474;9.416;2023-03-14T13:47:51;1.60;;;1.60;;
11267;SDS011;49397;47.474;9.416;2023-03-14T13:50:16;1.57;;;1.50;;
11267;SDS011;49397;47.474;9.416;2023-03-14T13:52:43;1.93;;;1.70;;
11267;SDS011;49397;47.474;9.416;2023-03-14T13:55:17;1.40;;;1.40;;
11267;SDS011;49397;47.474;9.416;2023-03-14T13:57:47;1.60;;;1.60;;
11267;SDS011;49397;47.474;9.416;2023-03-14T14:00:17;1.60;;;1.60;;
11267;SDS011;49397;47.474;9.416;2023-03-14T14:02:43;1.87;;;1.87;;
11267;SDS011;49397;47.474;9.416;2023-03-14T14:05:10;1.50;;;1.50;;
11267;SDS011;49397;47.474;9.416;2023-03-14T14:07:35;1.50;;;1.50;;
11267;SDS011;49397;47.474;9.416;2023-03-14T14:10:03;1.77;;;1.73;;
11267;SDS011;49397;47.474;9.416;2023-03-14T14:12:35;1.87;;;1.80;;
11267;SDS011;49397;47.474;9.416;2023-03-14T14:17:52;1.90;;;1.90;;
11267;SDS011;49397;47.474;9.416;2023-03-14T14:20:19;2.23;;;2.00;;
11267;SDS011;49397;47.474;9.416;2023-03-14T14:22:45;2.30;;;1.83;;
11267;SDS011;49397;47.474;9.416;2023-03-14T14:25:14;2.83;;;2.00;;
11267;SDS011;49397;47.474;9.416;2023-03-14T14:27:43;2.87;;;1.90;;
11267;SDS011;49397;47.474;9.416;2023-03-14T14:32:44;2.77;;;2.60;;
11267;SDS011;49397;47.474;9.416;2023-03-14T14:35:11;2.23;;;1.93;;
11267;SDS011;49397;47.474;9.416;2023-03-14T14:37:46;2.13;;;1.90;;
11267;SDS011;49397;47.474;9.416;2023-03-14T14:42:41;2.53;;;2.30;;
11267;SDS011;49397;47.474;9.416;2023-03-14T14:45:09;3.03;;;1.67;;
11267;SDS011;49397;47.474;9.416;2023-03-14T14:47:47;1.80;;;1.80;;
11267;SDS011;49397;47.474;9.416;2023-03-14T14:50:30;2.30;;;1.90;;
11267;SDS011;49397;47.474;9.416;2023-03-14T14:52:57;5.53;;;1.87;;
11267;SDS011;49397;47.474;9.416;2023-03-14T14:55:22;1.80;;;1.70;;
11267;SDS011;49397;47.474;9.416;2023-03-14T14:57:54;3.47;;;2.10;;
11267;SDS011;49397;47.474;9.416;2023-03-14T15:00:22;3.40;;;1.70;;
11267;SDS011;49397;47.474;9.416;2023-03-14T15:02:49;5.23;;;2.17;;
11267;SDS011;49397;47.474;9.416;2023-03-14T15:05:19;2.83;;;1.87;;
11267;SDS011;49397;47.474;9.416;2023-03-14T15:07:45;3.13;;;2.10;;
11267;SDS011;49397;47.474;9.416;2023-03-14T15:10:15;2.53;;;2.33;;
11267;SDS011;49397;47.474;9.416;2023-03-14T15:12:41;2.00;;;1.90;;
11267;SDS011;49397;47.474;9.416;2023-03-14T15:15:06;2.13;;;1.70;;
11267;SDS011;49397;47.474;9.416;2023-03-14T15:17:32;1.93;;;1.83;;
11267;SDS011;49397;47.474;9.416;2023-03-14T15:19:57;1.80;;;1.70;;
11267;SDS011;49397;47.474;9.416;2023-03-14T15:22:23;2.60;;;2.40;;
11267;SDS011;49397;47.474;9.416;2023-03-14T15:24:49;2.37;;;1.73;;
11267;SDS011;49397;47.474;9.416;2023-03-14T15:27:15;3.13;;;2.93;;
11267;SDS011;49397;47.474;9.416;2023-03-14T15:29:40;4.73;;;2.10;;
11267;SDS011;49397;47.474;9.416;2023-03-14T15:32:08;2.43;;;1.90;;
11267;SDS011;49397;47.474;9.416;2023-03-14T15:34:34;2.10;;;1.90;;
11267;SDS011;49397;47.474;9.416;2023-03-14T15:37:00;1.57;;;1.50;;
11267;SDS011;49397;47.474;9.416;2023-03-14T15:39:27;1.67;;;1.67;;
11267;SDS011;49397;47.474;9.416;2023-03-14T15:41:53;5.50;;;1.80;;
11267;SDS011;49397;47.474;9.416;2023-03-14T15:44:18;1.90;;;1.80;;
11267;SDS011;49397;47.474;9.416;2023-03-14T15:46:43;3.13;;;1.80;;
11267;SDS011;49397;47.474;9.416;2023-03-14T15:49:09;2.20;;;1.97;;
11267;SDS011;49397;47.474;9.416;2023-03-14T15:51:34;2.00;;;1.80;;
11267;SDS011;49397;47.474;9.416;2023-03-14T15:53:59;2.33;;;2.10;;
11267;SDS011;49397;47.474;9.416;2023-03-14T15:56:25;7.30;;;2.50;;
11267;SDS011;49397;47.474;9.416;2023-03-14T15:58:52;2.10;;;2.00;;
11267;SDS011;49397;47.474;9.416;2023-03-14T16:01:18;1.90;;;1.80;;
11267;SDS011;49397;47.474;9.416;2023-03-14T16:03:43;2.17;;;2.07;;
11267;SDS011;49397;47.474;9.416;2023-03-14T16:06:10;2.23;;;2.00;;
11267;SDS011;49397;47.474;9.416;2023-03-14T16:08:35;2.23;;;2.03;;
11267;SDS011;49397;47.474;9.416;2023-03-14T16:11:01;2.17;;;2.07;;
11267;SDS011;49397;47.474;9.416;2023-03-14T16:13:26;2.20;;;2.03;;
11267;SDS011;49397;47.474;9.416;2023-03-14T16:15:59;4.10;;;2.40;;